createdAt,value
2022-11-23T00:01:14.014Z,100
2022-11-23T00:03:46.605Z,100
2022-11-23T00:05:02.900Z,100
2022-11-23T00:06:18.208Z,100
2022-11-23T00:07:34.497Z,100
2022-11-23T00:08:50.794Z,100
2022-11-23T00:10:07.085Z,100
2022-11-23T00:11:23.372Z,100
2022-11-23T00:12:39.667Z,100
2022-11-23T00:13:55.962Z,100
2022-11-23T00:15:12.272Z,100
2022-11-23T00:16:28.555Z,100
2022-11-23T00:17:44.866Z,100
2022-11-23T00:19:01.149Z,100
2022-11-23T00:20:17.440Z,100
2022-11-23T00:21:33.740Z,100
2022-11-23T00:22:49.052Z,100
2022-11-23T00:24:05.346Z,100
2022-11-23T00:25:21.633Z,99.9
2022-11-23T00:26:37.929Z,100
2022-11-23T00:27:54.220Z,100
2022-11-23T00:29:10.522Z,99.7
2022-11-23T00:30:26.813Z,99.6
2022-11-23T00:31:43.110Z,99.3
2022-11-23T00:32:59.412Z,99.3
2022-11-23T00:34:15.694Z,99
2022-11-23T00:35:32.007Z,98.8
2022-11-23T00:36:48.292Z,98.9
2022-11-23T00:38:04.593Z,98.7
2022-11-23T00:39:19.908Z,98.7
2022-11-23T00:40:36.193Z,98.7
2022-11-23T00:41:52.494Z,98.8
2022-11-23T00:43:08.781Z,98.6
2022-11-23T00:45:41.370Z,98.4
2022-11-23T00:46:57.658Z,98.3
2022-11-23T00:48:13.959Z,98.2
2022-11-23T00:49:30.249Z,98.1
2022-11-23T00:50:46.558Z,97.8
2022-11-23T00:52:02.850Z,97.8
2022-11-23T00:53:19.131Z,97.8
2022-11-23T00:54:35.438Z,97.8
2022-11-23T00:55:50.750Z,97.8
2022-11-23T00:57:07.043Z,97.8
2022-11-23T00:58:23.336Z,97.8
2022-11-23T01:00:55.929Z,97.8
2022-11-23T01:03:28.512Z,97.6
2022-11-23T01:04:43.840Z,97.6
2022-11-23T01:05:59.152Z,97.6
2022-11-23T01:07:15.429Z,97.6
2022-11-23T01:08:31.743Z,97.6
2022-11-23T01:09:48.000Z,97.5
2022-11-23T01:11:04.316Z,97.5
2022-11-23T01:12:20.614Z,97.5
2022-11-23T01:13:36.917Z,97.4
2022-11-23T01:14:53.197Z,97.3
2022-11-23T01:16:09.509Z,97.2
2022-11-23T01:17:25.798Z,97.1
2022-11-23T01:18:41.115Z,97.1
2022-11-23T01:19:56.414Z,97.1
2022-11-23T01:21:12.725Z,97.2
2022-11-23T01:23:45.000Z,97.2
2022-11-23T01:25:01.600Z,97.2
2022-11-23T01:26:17.886Z,97.1
2022-11-23T01:27:34.196Z,96.9
2022-11-23T01:28:50.483Z,97
2022-11-23T01:31:23.067Z,96.9
2022-11-23T01:32:39.377Z,96.9
2022-11-23T01:33:55.654Z,96.9
2022-11-23T01:35:10.973Z,96.8
2022-11-23T01:36:26.286Z,96.8
2022-11-23T01:37:42.578Z,96.8
2022-11-23T01:38:58.871Z,96.7
2022-11-23T01:40:15.175Z,96.6
2022-11-23T01:41:31.468Z,96.6
2022-11-23T01:42:47.765Z,96.6
2022-11-23T01:44:04.065Z,96.6
2022-11-23T01:45:20.349Z,96.4
2022-11-23T01:46:36.642Z,96.3
2022-11-23T01:47:52.951Z,96.2
2022-11-23T01:49:08.256Z,96.3
2022-11-23T01:50:23.565Z,96.2
2022-11-23T01:51:39.870Z,96.1
2022-11-23T01:52:56.157Z,96
2022-11-23T01:54:12.445Z,96
2022-11-23T01:55:28.749Z,95.8
2022-11-23T01:56:45.044Z,95.9
2022-11-23T01:58:01.345Z,95.9
2022-11-23T01:59:17.639Z,95.9
2022-11-23T02:00:33.922Z,95.9
2022-11-23T02:01:50.218Z,95.9
2022-11-23T02:03:06.524Z,95.8
2022-11-23T02:04:22.818Z,95.8
2022-11-23T02:05:39.107Z,95.8
2022-11-23T02:06:54.412Z,95.8
2022-11-23T02:08:10.710Z,95.7
2022-11-23T02:09:27.002Z,95.7
2022-11-23T02:10:43.302Z,95.8
2022-11-23T02:11:59.588Z,95.8
2022-11-23T02:13:15.890Z,95.8
2022-11-23T02:14:32.180Z,95.8
2022-11-23T02:15:48.487Z,95.9
2022-11-23T02:17:04.771Z,95.7
2022-11-23T02:18:21.069Z,95.8
2022-11-23T02:19:37.370Z,95.8
2022-11-23T02:20:53.659Z,95.8
2022-11-23T02:22:09.951Z,95.7
2022-11-23T02:23:25.265Z,95.7
2022-11-23T02:24:41.559Z,95.6
2022-11-23T02:25:57.860Z,95.7
2022-11-23T02:27:14.149Z,95.7
2022-11-23T02:28:30.453Z,95.6
2022-11-23T02:29:46.747Z,95.6
2022-11-23T02:31:03.039Z,95.7
2022-11-23T02:32:19.318Z,95.5
2022-11-23T02:33:35.623Z,95.3
2022-11-23T02:34:51.922Z,95.3
2022-11-23T02:36:08.215Z,95.3
2022-11-23T02:37:24.511Z,95.3
2022-11-23T02:38:40.801Z,95.3
2022-11-23T02:39:56.102Z,95.3
2022-11-23T02:41:12.411Z,95.3
2022-11-23T02:42:28.705Z,95
2022-11-23T02:43:44.997Z,95.1
2022-11-23T02:45:01.280Z,95.1
2022-11-23T02:46:17.586Z,95.1
2022-11-23T02:47:33.877Z,95
2022-11-23T02:48:50.168Z,94.9
2022-11-23T02:50:06.458Z,95
2022-11-23T02:51:22.760Z,94.9
2022-11-23T02:52:39.063Z,95
2022-11-23T02:53:55.350Z,95
2022-11-23T02:55:11.653Z,95
2022-11-23T02:56:26.969Z,95
2022-11-23T02:57:43.247Z,95
2022-11-23T02:58:59.552Z,95
2022-11-23T03:00:15.840Z,94.9
2022-11-23T03:01:32.128Z,95
2022-11-23T03:02:48.434Z,95
2022-11-23T03:04:04.731Z,94.9
2022-11-23T03:05:21.030Z,95
2022-11-23T03:06:37.323Z,95.1
2022-11-23T03:07:53.620Z,95
2022-11-23T03:09:09.897Z,95.1
2022-11-23T03:10:26.201Z,95.1
2022-11-23T03:11:42.498Z,95.2
2022-11-23T03:12:57.812Z,95.3
2022-11-23T03:14:14.100Z,95.3
2022-11-23T03:15:30.403Z,95.5
2022-11-23T03:16:46.696Z,95.6
2022-11-23T03:18:02.991Z,95.6
2022-11-23T03:19:19.284Z,95.7
2022-11-23T03:20:35.568Z,95.7
2022-11-23T03:21:51.862Z,95.9
2022-11-23T03:23:08.164Z,95.8
2022-11-23T03:24:24.458Z,95.7
2022-11-23T03:25:40.747Z,95.9
2022-11-23T03:26:57.049Z,95.8
2022-11-23T03:28:13.335Z,95.8
2022-11-23T03:29:28.653Z,95.8
2022-11-23T03:30:44.945Z,95.8
2022-11-23T03:33:17.533Z,95.8
2022-11-23T03:34:33.837Z,95.8
2022-11-23T03:35:50.130Z,95.6
2022-11-23T03:37:06.424Z,95.5
2022-11-23T03:38:22.708Z,95.6
2022-11-23T03:40:55.317Z,95.5
2022-11-23T03:42:11.610Z,95.5
2022-11-23T03:43:27.890Z,95.6
2022-11-23T03:44:44.198Z,95.5
2022-11-23T03:45:59.501Z,95.6
2022-11-23T03:47:15.786Z,95.5
2022-11-23T03:48:32.090Z,95.5
2022-11-23T03:49:48.387Z,95.4
2022-11-23T03:51:04.672Z,95.3
2022-11-23T03:52:20.965Z,95.2
2022-11-23T03:53:37.274Z,95.2
2022-11-23T03:54:53.572Z,95.2
2022-11-23T03:56:09.853Z,95.2
2022-11-23T03:57:26.146Z,95.2
2022-11-23T03:58:42.439Z,95.3
2022-11-23T03:59:58.741Z,95.4
2022-11-23T04:01:15.044Z,95.4
2022-11-23T04:02:30.345Z,95.5
2022-11-23T04:03:46.632Z,95.6
2022-11-23T04:05:01.948Z,95.6
2022-11-23T04:06:18.251Z,95.6
2022-11-23T04:07:34.547Z,95.7
2022-11-23T04:08:50.836Z,95.7
2022-11-23T04:10:07.133Z,95.7
2022-11-23T04:11:23.438Z,95.6
2022-11-23T04:12:39.730Z,95.6
2022-11-23T04:13:56.014Z,95.6
2022-11-23T04:15:12.323Z,95.6
2022-11-23T04:16:28.609Z,95.6
2022-11-23T04:17:44.912Z,95.4
2022-11-23T04:19:01.189Z,95.4
2022-11-23T04:20:17.485Z,95.4
2022-11-23T04:21:32.797Z,95.3
2022-11-23T04:22:49.106Z,95.3
2022-11-23T04:24:05.393Z,95.3
2022-11-23T04:25:21.680Z,95.3
2022-11-23T04:26:37.978Z,95.3
2022-11-23T04:27:54.286Z,95.4
2022-11-23T04:29:10.580Z,95.3
2022-11-23T04:31:43.155Z,95.4
2022-11-23T04:32:59.459Z,95.5
2022-11-23T04:34:15.756Z,95.4
2022-11-23T04:35:32.042Z,95.4
2022-11-23T04:36:48.346Z,95.4
2022-11-23T04:38:03.654Z,95.4
2022-11-23T04:39:19.950Z,95.4
2022-11-23T04:40:36.250Z,95.6
2022-11-23T04:41:52.538Z,95.6
2022-11-23T04:43:08.829Z,95.7
2022-11-23T04:44:25.120Z,95.8
2022-11-23T04:45:41.428Z,95.9
2022-11-23T04:46:57.718Z,96
2022-11-23T04:49:30.300Z,96
2022-11-23T04:50:46.594Z,96
2022-11-23T04:52:02.893Z,96.2
2022-11-23T04:53:19.187Z,96.2
2022-11-23T04:54:34.505Z,96.3
2022-11-23T04:55:50.801Z,96.7
2022-11-23T04:57:07.084Z,96.6
2022-11-23T04:58:23.382Z,96.6
2022-11-23T04:59:39.675Z,96.6
2022-11-23T05:00:55.970Z,96.9
2022-11-23T05:02:12.275Z,97.1
2022-11-23T05:03:28.559Z,97.3
2022-11-23T05:04:44.862Z,97.3
2022-11-23T05:06:01.160Z,97.5
2022-11-23T05:07:17.442Z,97.6
2022-11-23T05:08:33.742Z,97.3
2022-11-23T05:09:50.045Z,97.4
2022-11-23T05:11:06.326Z,97.7
2022-11-23T05:12:21.636Z,97.9
2022-11-23T05:13:37.929Z,98
2022-11-23T05:14:54.229Z,98
2022-11-23T05:16:10.534Z,98.2
2022-11-23T05:17:26.827Z,98.5
2022-11-23T05:18:43.122Z,98.5
2022-11-23T05:19:59.408Z,98.7
2022-11-23T05:21:15.709Z,99
2022-11-23T05:22:31.993Z,98.8
2022-11-23T05:25:04.586Z,98.8
2022-11-23T05:26:20.875Z,99
2022-11-23T05:27:37.187Z,99
2022-11-23T05:28:52.499Z,99
2022-11-23T05:30:08.790Z,98.8
2022-11-23T05:31:25.076Z,98.7
2022-11-23T05:32:41.381Z,98.7
2022-11-23T05:33:57.659Z,98.8
2022-11-23T05:35:13.974Z,98.8
2022-11-23T05:36:30.253Z,98.6
2022-11-23T05:37:46.552Z,98.5
2022-11-23T05:39:02.849Z,98.2
2022-11-23T05:40:19.141Z,98.4
2022-11-23T05:41:35.445Z,98.5
2022-11-23T05:42:51.735Z,98.5
2022-11-23T05:44:08.031Z,98.4
2022-11-23T05:45:23.339Z,98.4
2022-11-23T05:46:39.626Z,98.5
2022-11-23T05:47:55.924Z,98.7
2022-11-23T05:49:12.226Z,98.5
2022-11-23T05:50:28.522Z,98.7
2022-11-23T05:51:44.805Z,98.8
2022-11-23T05:53:01.100Z,98.4
2022-11-23T05:54:17.393Z,98.6
2022-11-23T05:55:33.692Z,98.7
2022-11-23T05:56:49.986Z,98.7
2022-11-23T05:58:06.281Z,98.9
2022-11-23T05:59:22.581Z,99
2022-11-23T06:00:38.882Z,99
2022-11-23T06:01:54.179Z,99.3
2022-11-23T06:03:10.488Z,99.2
2022-11-23T06:05:43.023Z,99.4
2022-11-23T06:06:59.273Z,99.4
2022-11-23T06:08:15.506Z,99.7
2022-11-23T06:09:31.745Z,100
2022-11-23T06:10:47.995Z,100
2022-11-23T06:12:04.233Z,100
2022-11-23T06:13:20.473Z,100
2022-11-23T06:14:36.714Z,99.6
2022-11-23T06:15:52.960Z,99.4
2022-11-23T06:17:09.204Z,99.8
2022-11-23T06:18:24.458Z,99.9
2022-11-23T06:19:40.694Z,99.9
2022-11-23T06:20:56.949Z,100
2022-11-23T06:22:13.182Z,100
2022-11-23T06:23:29.425Z,100
2022-11-23T06:24:45.668Z,100
2022-11-23T06:26:01.905Z,100
2022-11-23T06:28:34.376Z,99.9
2022-11-23T06:29:50.615Z,99.8
2022-11-23T06:31:06.864Z,99.9
2022-11-23T06:32:23.097Z,100
2022-11-23T06:33:39.347Z,100
2022-11-23T06:34:54.611Z,100
2022-11-23T06:36:10.847Z,100
2022-11-23T06:37:27.085Z,100
2022-11-23T06:38:43.321Z,100
2022-11-23T06:39:59.575Z,100
2022-11-23T06:41:15.819Z,100
2022-11-23T06:42:32.053Z,100
2022-11-23T06:43:48.303Z,100
2022-11-23T06:45:04.533Z,100
2022-11-23T06:46:20.769Z,100
2022-11-23T06:47:37.015Z,100
2022-11-23T06:48:53.265Z,100
2022-11-23T06:50:09.506Z,100
2022-11-23T06:52:40.998Z,100
2022-11-23T06:53:57.238Z,100
2022-11-23T06:55:13.466Z,100
2022-11-23T06:56:29.721Z,100
2022-11-23T06:57:45.955Z,100
2022-11-23T06:59:02.189Z,100
2022-11-23T07:00:18.441Z,99.8
2022-11-23T07:01:34.674Z,99.8
2022-11-23T07:02:50.933Z,99.7
2022-11-23T07:04:07.155Z,99.7
2022-11-23T07:05:23.412Z,99.7
2022-11-23T07:06:39.652Z,99.5
2022-11-23T07:07:54.893Z,99.5
2022-11-23T07:09:11.144Z,99.5
2022-11-23T07:10:27.376Z,99.4
2022-11-23T07:11:43.614Z,99.4
2022-11-23T07:12:59.854Z,99.3
2022-11-23T07:14:16.100Z,99.4
2022-11-23T07:15:32.348Z,99.3
2022-11-23T07:16:48.582Z,99.2
2022-11-23T07:18:04.830Z,99
2022-11-23T07:19:21.062Z,99
2022-11-23T07:20:37.300Z,98.9
2022-11-23T07:21:53.550Z,98.8
2022-11-23T07:23:09.793Z,98.5
2022-11-23T07:24:25.052Z,98.3
2022-11-23T07:25:41.283Z,98.2
2022-11-23T07:26:57.519Z,98
2022-11-23T07:28:13.766Z,97.9
2022-11-23T07:29:30.018Z,97.8
2022-11-23T07:30:46.256Z,97.7
2022-11-23T07:32:02.481Z,97.6
2022-11-23T07:33:18.740Z,97.5
2022-11-23T07:34:34.969Z,97.4
2022-11-23T07:35:51.205Z,97
2022-11-23T07:37:07.452Z,97.2
2022-11-23T07:38:23.705Z,97
2022-11-23T07:39:39.940Z,96.8
2022-11-23T07:40:55.195Z,96.7
2022-11-23T07:42:11.428Z,96.6
2022-11-23T07:44:43.905Z,96.5
2022-11-23T07:46:00.169Z,96.2
2022-11-23T07:47:16.404Z,96.1
2022-11-23T07:48:32.646Z,96
2022-11-23T07:49:48.883Z,95.9
2022-11-23T07:52:21.367Z,95.8
2022-11-23T07:53:37.596Z,95.8
2022-11-23T07:54:53.850Z,95.8
2022-11-23T07:57:26.331Z,95.9
2022-11-23T07:59:57.837Z,95.4
2022-11-23T08:01:13.099Z,95.2
2022-11-23T08:02:28.344Z,95.3
2022-11-23T08:03:44.591Z,95.3
2022-11-23T08:05:00.835Z,95.2
2022-11-23T08:06:17.064Z,94.9
2022-11-23T08:07:33.305Z,94.7
2022-11-23T08:08:49.544Z,94.7
2022-11-23T08:10:05.794Z,94.7
2022-11-23T08:11:22.023Z,94.7
2022-11-23T08:12:38.281Z,94.5
2022-11-23T08:13:54.522Z,94.5
2022-11-23T08:15:09.778Z,94.8
2022-11-23T08:16:25.027Z,94.8
2022-11-23T08:17:41.268Z,94.5
2022-11-23T08:18:57.510Z,94.3
2022-11-23T08:20:12.782Z,94.3
2022-11-23T08:22:45.254Z,94.7
2022-11-23T08:24:01.503Z,94.7
2022-11-23T08:25:17.736Z,94.7
2022-11-23T08:26:33.975Z,94.9
2022-11-23T08:27:50.229Z,94.8
2022-11-23T08:29:06.463Z,94.9
2022-11-23T08:30:22.710Z,94.8
2022-11-23T08:31:38.949Z,94.8
2022-11-23T08:32:55.181Z,94.9
2022-11-23T08:34:11.419Z,94.8
2022-11-23T08:35:27.670Z,94.9
2022-11-23T08:37:59.162Z,94.5
2022-11-23T08:39:14.427Z,94.5
2022-11-23T08:40:29.689Z,94.5
2022-11-23T08:41:45.923Z,94.5
2022-11-23T08:43:02.159Z,94.5
2022-11-23T08:44:18.408Z,94.7
2022-11-23T08:45:34.647Z,94.7
2022-11-23T08:46:50.889Z,94.8
2022-11-23T08:48:07.124Z,94.9
2022-11-23T08:49:23.360Z,94.8
2022-11-23T08:50:39.601Z,94.9
2022-11-23T08:51:55.857Z,95
2022-11-23T08:53:11.119Z,95
2022-11-23T08:54:26.361Z,95.1
2022-11-23T08:55:42.614Z,95.2
2022-11-23T08:56:58.855Z,95
2022-11-23T08:58:15.093Z,94.9
2022-11-23T09:00:47.573Z,94.8
2022-11-23T09:02:03.803Z,94.9
2022-11-23T09:03:20.057Z,94.7
2022-11-23T09:04:36.293Z,94.3
2022-11-23T09:05:52.529Z,94.3
2022-11-23T09:07:08.768Z,94.2
2022-11-23T09:08:25.015Z,93.8
2022-11-23T09:09:41.258Z,93.7
2022-11-23T09:10:56.522Z,93.7
2022-11-23T09:12:12.755Z,93.5
2022-11-23T09:13:28.996Z,93.1
2022-11-23T09:16:01.464Z,93.3
2022-11-23T09:17:16.730Z,93.2
2022-11-23T09:18:31.982Z,93
2022-11-23T09:19:48.239Z,92.4
2022-11-23T09:21:04.475Z,92.1
2022-11-23T09:22:20.722Z,92.2
2022-11-23T09:23:36.948Z,92.3
2022-11-23T09:24:53.194Z,92.2
2022-11-23T09:26:09.428Z,92.4
2022-11-23T09:27:25.668Z,92.4
2022-11-23T09:28:41.926Z,92.4
2022-11-23T09:29:58.154Z,92.3
2022-11-23T09:31:13.422Z,92.5
2022-11-23T09:32:28.672Z,92
2022-11-23T09:33:44.913Z,91.9
2022-11-23T09:35:01.000Z,91.7
2022-11-23T09:36:17.397Z,91.7
2022-11-23T09:38:49.874Z,91.7
2022-11-23T09:40:06.127Z,91.6
2022-11-23T09:41:22.359Z,91.6
2022-11-23T09:42:38.604Z,91.6
2022-11-23T09:43:54.848Z,91.2
2022-11-23T09:45:11.089Z,91.3
2022-11-23T09:46:27.322Z,91
2022-11-23T09:48:59.814Z,90.8
2022-11-23T09:50:15.072Z,90.5
2022-11-23T09:51:30.316Z,90.7
2022-11-23T09:52:46.559Z,90.4
2022-11-23T09:54:02.802Z,90.5
2022-11-23T09:55:19.048Z,90.8
2022-11-23T09:56:35.285Z,90.1
2022-11-23T09:57:51.535Z,89.6
2022-11-23T09:59:07.766Z,89.6
2022-11-23T10:00:24.018Z,90.2
2022-11-23T10:01:40.257Z,89.8
2022-11-23T10:02:56.482Z,89.7
2022-11-23T10:04:11.748Z,89.8
2022-11-23T10:05:26.999Z,89.8
2022-11-23T10:06:43.256Z,89.4
2022-11-23T10:07:59.489Z,89.4
2022-11-23T10:09:15.722Z,88.9
2022-11-23T10:10:31.980Z,89
2022-11-23T10:11:48.208Z,88.9
2022-11-23T10:13:04.449Z,89.1
2022-11-23T10:14:20.691Z,89.4
2022-11-23T10:15:36.936Z,88.3
2022-11-23T10:16:53.178Z,88
2022-11-23T10:18:09.407Z,87.6
2022-11-23T10:19:25.650Z,87.8
2022-11-23T10:20:41.906Z,87.3
2022-11-23T10:21:57.149Z,87.1
2022-11-23T10:23:13.398Z,87.8
2022-11-23T10:24:29.640Z,88.4
2022-11-23T10:25:45.882Z,88.6
2022-11-23T10:27:02.126Z,88.6
2022-11-23T10:28:18.359Z,89
2022-11-23T10:29:34.589Z,88.6
2022-11-23T10:30:50.842Z,88.4
2022-11-23T10:32:07.079Z,88.1
2022-11-23T10:33:23.316Z,86.8
2022-11-23T10:34:39.569Z,86.9
2022-11-23T10:35:55.800Z,86.3
2022-11-23T10:37:12.032Z,86.7
2022-11-23T10:39:43.530Z,87.1
2022-11-23T10:40:59.773Z,87.1
2022-11-23T10:42:16.011Z,86.7
2022-11-23T10:43:32.256Z,87.1
2022-11-23T10:44:48.495Z,87
2022-11-23T10:46:04.740Z,87.2
2022-11-23T10:47:20.991Z,87.4
2022-11-23T10:48:37.224Z,87.1
2022-11-23T10:49:53.472Z,87.4
2022-11-23T10:51:09.705Z,86.9
2022-11-23T10:52:25.953Z,86.9
2022-11-23T10:53:42.192Z,86.6
2022-11-23T10:54:57.430Z,86.8
2022-11-23T10:56:13.692Z,86.7
2022-11-23T10:57:29.930Z,86.5
2022-11-23T10:58:46.154Z,86.9
2022-11-23T11:00:02.407Z,87.2
2022-11-23T11:01:18.653Z,87.6
2022-11-23T11:02:34.888Z,87.1
2022-11-23T11:03:51.135Z,86.8
2022-11-23T11:05:07.368Z,86.1
2022-11-23T11:06:23.606Z,86.6
2022-11-23T11:07:39.846Z,86.3
2022-11-23T11:08:56.082Z,86.3
2022-11-23T11:10:12.325Z,86.7
2022-11-23T11:11:28.682Z,87
2022-11-23T11:12:44.924Z,86.1
2022-11-23T11:14:01.181Z,86
2022-11-23T11:15:17.420Z,86.7
2022-11-23T11:20:22.366Z,86
2022-11-23T11:21:38.752Z,86.4
2022-11-23T11:22:54.024Z,86.4
2022-11-23T11:24:10.262Z,86.3
2022-11-23T11:25:26.501Z,86.2
2022-11-23T11:26:42.743Z,86.1
2022-11-23T11:27:58.968Z,86.2
2022-11-23T11:29:15.218Z,86.5
2022-11-23T11:30:31.452Z,86.6
2022-11-23T11:31:47.694Z,87.4
2022-11-23T11:33:03.945Z,86.2
2022-11-23T11:34:20.187Z,85.7
2022-11-23T11:35:35.435Z,85.5
2022-11-23T11:36:50.701Z,85.8
2022-11-23T11:38:06.937Z,86.2
2022-11-23T11:39:23.184Z,84.7
2022-11-23T11:40:39.417Z,84.8
2022-11-23T11:41:55.663Z,84.7
2022-11-23T11:43:11.907Z,85.1
2022-11-23T11:44:28.151Z,85.4
2022-11-23T11:45:44.378Z,84.7
2022-11-23T11:47:00.622Z,83.6
2022-11-23T11:48:16.857Z,84.4
2022-11-23T11:49:33.096Z,84.8
2022-11-23T11:50:49.335Z,84
2022-11-23T11:52:05.593Z,84.4
2022-11-23T11:53:20.834Z,84.3
2022-11-23T11:54:37.081Z,83.7
2022-11-23T11:55:53.316Z,83.7
2022-11-23T11:57:09.571Z,84
2022-11-23T11:58:25.794Z,84.3
2022-11-23T11:59:42.037Z,84.5
2022-11-23T12:00:58.274Z,84.6
2022-11-23T12:02:14.525Z,85
2022-11-23T12:03:30.754Z,84.6
2022-11-23T12:04:47.001Z,84.7
2022-11-23T12:06:03.235Z,84.9
2022-11-23T12:08:35.718Z,84.3
2022-11-23T12:09:50.985Z,84.6
2022-11-23T12:11:07.229Z,84.9
2022-11-23T12:12:23.471Z,84.7
2022-11-23T12:13:39.696Z,84.8
2022-11-23T12:14:55.951Z,85
2022-11-23T12:16:12.178Z,84.8
2022-11-23T12:18:44.671Z,85.2
2022-11-23T12:20:00.917Z,85.3
2022-11-23T12:21:17.150Z,85.4
2022-11-23T12:22:33.376Z,85.5
2022-11-23T12:23:49.627Z,85.3
2022-11-23T12:26:22.108Z,85.6
2022-11-23T12:27:37.361Z,85.5
2022-11-23T12:28:52.622Z,85.3
2022-11-23T12:30:08.867Z,85.4
2022-11-23T12:31:25.099Z,85.6
2022-11-23T12:32:41.342Z,85.3
2022-11-23T12:33:57.588Z,85.2
2022-11-23T12:35:12.848Z,85.4
2022-11-23T12:36:29.090Z,85.1
2022-11-23T12:37:45.333Z,85.2
2022-11-23T12:39:01.575Z,85.6
2022-11-23T12:40:17.811Z,85.7
2022-11-23T12:41:33.084Z,85.5
2022-11-23T12:42:48.337Z,85
2022-11-23T12:44:04.568Z,84.9
2022-11-23T12:45:20.817Z,85.2
2022-11-23T12:46:37.060Z,85
2022-11-23T12:49:09.536Z,85.1
2022-11-23T12:50:25.771Z,85.5
2022-11-23T12:51:42.023Z,85.1
2022-11-23T12:52:58.257Z,85.2
2022-11-23T12:54:14.504Z,85.5
2022-11-23T12:55:30.741Z,85.6
2022-11-23T12:56:46.987Z,85.5
2022-11-23T12:58:03.219Z,85.2
2022-11-23T12:59:18.464Z,85.2
2022-11-23T13:00:34.718Z,84.9
2022-11-23T13:01:50.948Z,85.4
2022-11-23T13:03:07.192Z,85.4
2022-11-23T13:04:23.443Z,85
2022-11-23T13:05:39.686Z,84.9
2022-11-23T13:06:55.911Z,84.8
2022-11-23T13:08:12.167Z,84.7
2022-11-23T13:09:28.391Z,84.7
2022-11-23T13:10:44.641Z,84.6
2022-11-23T13:12:00.880Z,84.8
2022-11-23T13:13:17.115Z,84.5
2022-11-23T13:14:33.356Z,84.7
2022-11-23T13:15:49.603Z,84.7
2022-11-23T13:17:04.851Z,84.7
2022-11-23T13:19:37.340Z,84.7
2022-11-23T13:20:53.580Z,84.3
2022-11-23T13:22:09.818Z,84.3
2022-11-23T13:23:26.054Z,84
2022-11-23T13:24:42.303Z,84.3
2022-11-23T13:25:58.550Z,84.7
2022-11-23T13:27:14.782Z,84.9
2022-11-23T13:28:31.019Z,84.9
2022-11-23T13:29:47.261Z,84.8
2022-11-23T13:31:03.500Z,84.8
2022-11-23T13:32:19.734Z,85
2022-11-23T13:33:34.992Z,85.2
2022-11-23T13:34:51.244Z,85.4
2022-11-23T13:36:07.472Z,85.3
2022-11-23T13:37:23.718Z,85.6
2022-11-23T13:38:39.960Z,85.7
2022-11-23T13:41:12.452Z,85.4
2022-11-23T13:42:28.692Z,85.8
2022-11-23T13:43:44.930Z,86
2022-11-23T13:45:01.169Z,86.4
2022-11-23T13:46:17.412Z,86.4
2022-11-23T13:47:33.643Z,86.4
2022-11-23T13:50:06.121Z,86.5
2022-11-23T13:51:21.380Z,86.9
2022-11-23T13:52:37.629Z,86.7
2022-11-23T13:53:53.859Z,86.6
2022-11-23T13:55:10.104Z,86.8
2022-11-23T13:57:42.596Z,86.5
2022-11-23T13:58:57.847Z,86.3
2022-11-23T14:00:13.099Z,86.3
2022-11-23T14:01:29.349Z,86
2022-11-23T14:02:45.593Z,86.2
2022-11-23T14:05:18.065Z,86.3
2022-11-23T14:06:34.317Z,86.5
2022-11-23T14:07:50.537Z,86.2
2022-11-23T14:09:06.784Z,86.4
2022-11-23T14:10:23.025Z,86.5
2022-11-23T14:11:39.260Z,86.6
2022-11-23T14:12:55.500Z,86.7
2022-11-23T14:14:11.753Z,86.8
2022-11-23T14:15:27.989Z,87
2022-11-23T14:16:43.257Z,86.8
2022-11-23T14:17:59.486Z,87
2022-11-23T14:19:15.738Z,86.7
2022-11-23T14:20:31.974Z,87.1
2022-11-23T14:21:48.207Z,86.9
2022-11-23T14:23:04.455Z,86.7
2022-11-23T14:24:20.680Z,86.7
2022-11-23T14:25:36.931Z,87
2022-11-23T14:26:52.189Z,87.1
2022-11-23T14:28:07.456Z,86.9
2022-11-23T14:29:23.687Z,87
2022-11-23T14:30:39.933Z,87.2
2022-11-23T14:31:56.169Z,87.3
2022-11-23T14:33:12.405Z,87.5
2022-11-23T14:34:28.658Z,87.5
2022-11-23T14:35:44.886Z,87.6
2022-11-23T14:37:01.133Z,87.7
2022-11-23T14:38:17.383Z,87.8
2022-11-23T14:39:33.622Z,87.9
2022-11-23T14:40:49.863Z,87.9
2022-11-23T14:42:06.089Z,88
2022-11-23T14:43:22.325Z,88.2
2022-11-23T14:44:37.600Z,88.2
2022-11-23T14:45:53.826Z,88.1
2022-11-23T14:47:10.064Z,88.3
2022-11-23T14:48:26.303Z,88.3
2022-11-23T14:49:42.545Z,88.3
2022-11-23T14:50:58.792Z,88.3
2022-11-23T14:52:15.044Z,88.5
2022-11-23T14:53:31.280Z,88.5
2022-11-23T14:54:47.511Z,88.5
2022-11-23T14:56:03.756Z,88.5
2022-11-23T14:57:19.998Z,88.6
2022-11-23T14:58:36.238Z,88.7
2022-11-23T14:59:52.489Z,88.4
2022-11-23T15:01:07.728Z,88.5
2022-11-23T15:02:23.969Z,88.5
2022-11-23T15:03:40.219Z,88.4
2022-11-23T15:04:56.449Z,88.5
2022-11-23T15:06:12.685Z,88.5
2022-11-23T15:07:28.945Z,88.6
2022-11-23T15:08:45.183Z,88.8
2022-11-23T15:10:01.411Z,89.1
2022-11-23T15:11:17.660Z,89.3
2022-11-23T15:12:33.909Z,89.4
2022-11-23T15:13:50.147Z,89.4
2022-11-23T15:16:22.619Z,89.6
2022-11-23T15:17:37.883Z,89.7
2022-11-23T15:18:54.109Z,89.7
2022-11-23T15:20:10.369Z,89.7
2022-11-23T15:21:26.608Z,89.6
2022-11-23T15:22:42.849Z,89.5
2022-11-23T15:23:59.089Z,89.5
2022-11-23T15:26:31.552Z,89.7
2022-11-23T15:27:47.812Z,89.3
2022-11-23T15:29:04.037Z,89.3
2022-11-23T15:30:20.282Z,89.4
2022-11-23T15:31:36.529Z,89.2
2022-11-23T15:32:52.765Z,89.4
2022-11-23T15:34:08.014Z,89.3
2022-11-23T15:35:24.256Z,89.3
2022-11-23T15:36:40.504Z,89.1
2022-11-23T15:39:12.979Z,89.3
2022-11-23T15:40:28.237Z,88.9
2022-11-23T15:41:43.510Z,89
2022-11-23T15:42:59.740Z,88.8
2022-11-23T15:44:15.987Z,88.9
2022-11-23T15:45:32.275Z,88.8
2022-11-23T15:46:48.519Z,88.8
2022-11-23T15:48:04.764Z,88.8
2022-11-23T15:49:20.988Z,88.9
2022-11-23T15:50:37.299Z,88.9
2022-11-23T15:51:53.594Z,89.3
2022-11-23T15:53:09.864Z,88.9
2022-11-23T15:54:25.180Z,89
2022-11-23T15:55:40.504Z,89.1
2022-11-23T15:56:56.807Z,89.1
2022-11-23T15:59:29.381Z,89.3
2022-11-23T16:00:45.674Z,89.2
2022-11-23T16:02:01.974Z,89.2
2022-11-23T16:03:18.258Z,89.1
2022-11-23T16:04:34.555Z,89.1
2022-11-23T16:07:07.144Z,89
2022-11-23T16:08:23.438Z,89
2022-11-23T16:09:39.735Z,89
2022-11-23T16:10:55.062Z,89
2022-11-23T16:12:10.357Z,88.9
2022-11-23T16:14:42.959Z,89
2022-11-23T16:15:59.243Z,89
2022-11-23T16:17:15.552Z,89.1
2022-11-23T16:18:31.834Z,89.2
2022-11-23T16:19:48.143Z,89.2
2022-11-23T16:21:04.420Z,89.3
2022-11-23T16:22:20.720Z,89.3
2022-11-23T16:23:37.021Z,89.5
2022-11-23T16:24:53.315Z,89.6
2022-11-23T16:26:09.611Z,89.7
2022-11-23T16:27:25.912Z,89.8
2022-11-23T16:28:41.204Z,90
2022-11-23T16:29:57.511Z,90
2022-11-23T16:31:13.809Z,90.2
2022-11-23T16:32:30.103Z,90.2
2022-11-23T16:33:46.381Z,90.4
2022-11-23T16:35:02.692Z,90.6
2022-11-23T16:36:18.973Z,90.7
2022-11-23T16:37:35.273Z,90.9
2022-11-23T16:38:50.590Z,91.1
2022-11-23T16:40:05.892Z,91.4
2022-11-23T16:41:22.188Z,91.4
2022-11-23T16:42:38.482Z,91.6
2022-11-23T16:45:11.075Z,92
2022-11-23T16:46:27.367Z,92.2
2022-11-23T16:47:43.667Z,92.5
2022-11-23T16:48:59.966Z,92.5
2022-11-23T16:50:15.281Z,92.3
2022-11-23T16:51:31.567Z,92.4
2022-11-23T16:52:47.862Z,92.8
2022-11-23T16:54:04.154Z,92.9
2022-11-23T16:55:20.457Z,93.2
2022-11-23T16:56:36.748Z,93.3
2022-11-23T16:57:53.057Z,93.3
2022-11-23T16:59:09.342Z,93.6
2022-11-23T17:00:25.632Z,93.8
2022-11-23T17:01:41.925Z,94
2022-11-23T17:02:58.237Z,93.9
2022-11-23T17:04:14.516Z,93.9
2022-11-23T17:05:30.817Z,94.1
2022-11-23T17:06:46.126Z,94.1
2022-11-23T17:08:02.425Z,94.1
2022-11-23T17:09:18.717Z,94.3
2022-11-23T17:10:35.016Z,94.1
2022-11-23T17:11:51.312Z,94
2022-11-23T17:13:07.601Z,94
2022-11-23T17:14:23.899Z,94
2022-11-23T17:15:40.190Z,94.1
2022-11-23T17:16:56.478Z,94
2022-11-23T17:18:12.772Z,93.8
2022-11-23T17:19:29.070Z,93.8
2022-11-23T17:20:45.375Z,93.7
2022-11-23T17:22:01.669Z,93.8
2022-11-23T17:23:16.965Z,93.7
2022-11-23T17:25:49.564Z,93.7
2022-11-23T17:27:05.854Z,93.6
2022-11-23T17:28:22.165Z,93.4
2022-11-23T17:29:38.455Z,93.5
2022-11-23T17:30:54.740Z,93.7
2022-11-23T17:32:11.041Z,93.8
2022-11-23T17:33:27.332Z,93.9
2022-11-23T17:34:43.631Z,93.9
2022-11-23T17:35:59.923Z,93.9
2022-11-23T17:37:16.218Z,94.1
2022-11-23T17:38:32.519Z,94.1
2022-11-23T17:39:47.826Z,94.1
2022-11-23T17:41:04.124Z,94.4
2022-11-23T17:42:20.419Z,94.5
2022-11-23T17:43:36.706Z,94.4
2022-11-23T17:44:53.012Z,94.5
2022-11-23T17:46:09.292Z,94.5
2022-11-23T17:47:25.600Z,94.4
2022-11-23T17:48:41.890Z,94.4
2022-11-23T17:49:58.179Z,94.6
2022-11-23T17:51:14.479Z,94.7
2022-11-23T17:53:47.057Z,94.4
2022-11-23T17:55:03.360Z,94.4
2022-11-23T17:56:18.673Z,94.5
2022-11-23T17:57:34.959Z,94.5
2022-11-23T17:58:51.262Z,94.3
2022-11-23T18:01:23.860Z,94.4
2022-11-23T18:02:40.146Z,94.5